createdAt,value
2019-03-22T00:01:16.606Z,102015.08
2019-03-22T00:03:48.160Z,102008.66
2019-03-22T00:06:20.053Z,102003.78
2019-03-22T00:08:51.591Z,102002.70
2019-03-22T00:11:23.464Z,101997.48
2019-03-22T00:13:55.116Z,101997.22
2019-03-22T00:16:26.778Z,101997.98
2019-03-22T00:18:58.991Z,101998.56
2019-03-22T00:21:30.807Z,102000.77
2019-03-22T00:24:02.571Z,102003.29
2019-03-22T00:26:34.210Z,101993.20
2019-03-22T00:29:05.782Z,101996.92
2019-03-22T00:31:37.440Z,101996.98
2019-03-22T00:34:09.102Z,101994.84
2019-03-22T00:36:40.635Z,101998.17
2019-03-22T00:39:12.518Z,101999.55
2019-03-22T00:41:44.170Z,101994.61
2019-03-22T00:44:15.813Z,101989.14
2019-03-22T00:46:47.692Z,101983.19
2019-03-22T00:49:19.244Z,101985.91
2019-03-22T00:51:50.786Z,101996.80
2019-03-22T00:54:23.677Z,101986.86
2019-03-22T00:56:56.770Z,101994.27
2019-03-22T00:59:28.423Z,101996.14
2019-03-22T01:02:00.292Z,101995.51
2019-03-22T01:04:32.054Z,101997.38
2019-03-22T01:07:03.707Z,101996.27
2019-03-22T01:09:36.590Z,101992.20
2019-03-22T01:12:09.378Z,101996.39
2019-03-22T01:14:41.158Z,101995.99
2019-03-22T01:17:13.837Z,101990.89
2019-03-22T01:19:45.477Z,101999.73
2019-03-22T01:22:17.155Z,101995.41
2019-03-22T01:24:49.023Z,101994.04
2019-03-22T01:27:20.778Z,101992.33
2019-03-22T01:29:52.336Z,101994.73
2019-03-22T01:32:23.989Z,101998.07
2019-03-22T01:34:55.850Z,101996.75
2019-03-22T01:37:27.508Z,101990.25
2019-03-22T01:40:00.499Z,101985.61
2019-03-22T01:42:32.259Z,101978.28
2019-03-22T01:45:05.943Z,101980.13
2019-03-22T01:47:38.010Z,101986.37
2019-03-22T01:50:15.109Z,101983.27
2019-03-22T01:52:47.482Z,101976.36
2019-03-22T01:55:19.021Z,101980.43
2019-03-22T01:57:53.666Z,101981.70
2019-03-22T02:00:23.786Z,101974.84
2019-03-22T02:02:55.548Z,101980.99
2019-03-22T02:05:27.102Z,101980.70
2019-03-22T02:07:58.561Z,101971.85
2019-03-22T02:10:30.402Z,101973.38
2019-03-22T02:13:02.024Z,101978.38
2019-03-22T02:15:33.818Z,101973.77
2019-03-22T02:18:05.695Z,101968.50
2019-03-22T02:20:37.248Z,101971.84
2019-03-22T02:23:09.112Z,101969.05
2019-03-22T02:25:40.800Z,101967.22
2019-03-22T02:28:12.614Z,101976.42
2019-03-22T02:30:44.497Z,101974.62
2019-03-22T02:33:16.042Z,101972.53
2019-03-22T02:35:47.801Z,101970.94
2019-03-22T02:38:19.484Z,101970.64
2019-03-22T02:40:51.231Z,101971.84
2019-03-22T02:43:22.768Z,101960.33
2019-03-22T02:45:54.647Z,101963.00
2019-03-22T02:48:26.297Z,101970.80
2019-03-22T02:50:57.763Z,101973.41
2019-03-22T02:53:29.512Z,101964.55
2019-03-22T02:56:01.237Z,101968.48
2019-03-22T02:58:32.918Z,101962.28
2019-03-22T03:01:04.717Z,101964.75
2019-03-22T03:03:36.356Z,101962.38
2019-03-22T03:06:08.122Z,101956.75
2019-03-22T03:08:39.870Z,101958.71
2019-03-22T03:11:11.511Z,101958.91
2019-03-22T03:13:43.295Z,101952.05
2019-03-22T03:16:15.047Z,101956.05
2019-03-22T03:18:46.908Z,101956.38
2019-03-22T03:21:18.347Z,101952.44
2019-03-22T03:23:50.117Z,101945.83
2019-03-22T03:26:21.678Z,101950.64
2019-03-22T03:28:53.225Z,101946.16
2019-03-22T03:31:25.052Z,101947.92
2019-03-22T03:33:56.658Z,101942.39
2019-03-22T03:36:28.201Z,101950.33
2019-03-22T03:38:59.852Z,101950.16
2019-03-22T03:41:31.595Z,101946.78
2019-03-22T03:44:03.382Z,101940.58
2019-03-22T03:46:35.033Z,101944.70
2019-03-22T03:49:06.996Z,101938.86
2019-03-22T03:51:38.551Z,101944.52
2019-03-22T03:54:10.403Z,101933.85
2019-03-22T03:56:42.075Z,101949.13
2019-03-22T03:59:13.560Z,101941.59
2019-03-22T04:01:45.284Z,101937.08
2019-03-22T04:04:17.052Z,101936.52
2019-03-22T04:06:48.494Z,101937.39
2019-03-22T04:09:20.352Z,101942.17
2019-03-22T04:11:52.010Z,101942.33
2019-03-22T04:14:23.681Z,101941.84
2019-03-22T04:16:55.030Z,101943.92
2019-03-22T04:19:26.776Z,101940.71
2019-03-22T04:21:58.450Z,101939.73
2019-03-22T04:24:29.985Z,101942.47
2019-03-22T04:27:01.648Z,101942.53
2019-03-22T04:29:33.423Z,101947.28
2019-03-22T04:32:04.988Z,101950.00
2019-03-22T04:34:36.518Z,101939.78
2019-03-22T04:37:08.397Z,101939.19
2019-03-22T04:39:39.851Z,101938.11
2019-03-22T04:42:11.701Z,101934.33
2019-03-22T04:44:43.475Z,101941.70
2019-03-22T04:47:15.442Z,101935.30
2019-03-22T04:49:47.283Z,101932.27
2019-03-22T04:52:19.573Z,101936.64
2019-03-22T04:54:51.022Z,101924.79
2019-03-22T04:57:22.563Z,101928.84
2019-03-22T04:59:54.321Z,101928.91
2019-03-22T05:02:25.991Z,101926.09
2019-03-22T05:04:57.551Z,101916.96
2019-03-22T05:07:29.303Z,101922.88
2019-03-22T05:10:00.964Z,101918.97
2019-03-22T05:12:32.836Z,101911.98
2019-03-22T05:15:06.535Z,101919.31
2019-03-22T05:17:38.034Z,101922.50
2019-03-22T05:20:09.837Z,101918.72
2019-03-22T05:22:41.601Z,101915.42
2019-03-22T05:25:13.072Z,101920.95
2019-03-22T05:27:44.812Z,101917.14
2019-03-22T05:30:51.916Z,101913.12
2019-03-22T05:33:23.552Z,101909.18
2019-03-22T05:35:55.208Z,101899.38
2019-03-22T05:38:27.170Z,101903.27
2019-03-22T05:40:59.015Z,101898.19
2019-03-22T05:43:30.370Z,101898.43
2019-03-22T05:46:02.229Z,101899.59
2019-03-22T05:48:33.801Z,101900.09
2019-03-22T05:51:05.852Z,101894.44
2019-03-22T05:53:37.408Z,101891.02
2019-03-22T05:56:10.408Z,101901.76
2019-03-22T05:58:42.071Z,101902.78
2019-03-22T06:01:13.828Z,101898.04
2019-03-22T06:03:45.280Z,101909.34
2019-03-22T06:06:16.936Z,101896.39
2019-03-22T06:08:48.420Z,101897.14
2019-03-22T06:11:20.250Z,101901.84
2019-03-22T06:13:52.067Z,101900.13
2019-03-22T06:16:23.773Z,101894.23
2019-03-22T06:18:55.409Z,101890.06
2019-03-22T06:21:27.093Z,101882.09
2019-03-22T06:23:58.829Z,101875.72
2019-03-22T06:26:30.705Z,101883.78
2019-03-22T06:29:02.058Z,101875.95
2019-03-22T06:31:33.715Z,101870.57
2019-03-22T06:34:05.630Z,101869.61
2019-03-22T06:36:37.334Z,101868.19
2019-03-22T06:39:09.097Z,101858.67
2019-03-22T06:41:40.649Z,101857.69
2019-03-22T06:44:12.511Z,101856.37
2019-03-22T06:46:44.153Z,101857.77
2019-03-22T06:49:15.726Z,101855.28
2019-03-22T06:51:47.591Z,101833.97
2019-03-22T06:54:30.724Z,101854.45
2019-03-22T06:56:52.341Z,101848.50
2019-03-22T06:59:24.102Z,101838.41
2019-03-22T07:01:55.860Z,101837.09
2019-03-22T07:04:27.923Z,101831.17
2019-03-22T07:06:59.669Z,101831.05
2019-03-22T07:09:31.546Z,101824.06
2019-03-22T07:12:03.204Z,101824.06
2019-03-22T07:14:35.579Z,101823.93
2019-03-22T07:17:07.033Z,101814.50
2019-03-22T07:19:39.794Z,101803.52
2019-03-22T07:22:12.797Z,101792.05
2019-03-22T07:24:44.455Z,101790.00
2019-03-22T07:27:16.093Z,101785.14
2019-03-22T07:29:47.978Z,101772.69
2019-03-22T07:32:21.166Z,101768.09
2019-03-22T07:34:52.718Z,101769.38
2019-03-22T07:37:24.264Z,101763.55
2019-03-22T07:39:55.974Z,101757.80
2019-03-22T07:42:27.681Z,101750.62
2019-03-22T07:44:59.046Z,101751.39
2019-03-22T07:47:30.791Z,101743.67
2019-03-22T07:50:05.332Z,101749.73
2019-03-22T07:52:36.707Z,101745.03
2019-03-22T07:55:08.399Z,101743.45
2019-03-22T07:57:40.079Z,101741.13
2019-03-22T08:00:13.009Z,101729.25
2019-03-22T08:02:44.437Z,101725.11
2019-03-22T08:05:15.977Z,101722.02
2019-03-22T08:07:47.644Z,101711.36
2019-03-22T08:10:19.411Z,101703.05
2019-03-22T08:12:51.053Z,101708.59
2019-03-22T08:15:28.256Z,101706.78
2019-03-22T08:18:00.116Z,101702.61
2019-03-22T08:20:31.990Z,101694.63
2019-03-22T08:23:04.838Z,101693.48
2019-03-22T08:25:36.532Z,101677.89
2019-03-22T08:28:07.949Z,101663.90
2019-03-22T08:30:43.200Z,101664.46
2019-03-22T08:33:13.227Z,101640.88
2019-03-22T08:35:44.971Z,101641.69
2019-03-22T08:38:17.657Z,101635.71
2019-03-22T08:40:49.331Z,101633.80
2019-03-22T08:43:21.065Z,101620.48
2019-03-22T08:45:52.724Z,101614.78
2019-03-22T08:48:24.517Z,101609.59
2019-03-22T08:50:56.081Z,101607.44
2019-03-22T08:53:27.820Z,101605.83
2019-03-22T08:55:59.460Z,101592.23
2019-03-22T08:58:31.130Z,101573.70
2019-03-22T09:01:02.934Z,101574.45
2019-03-22T09:03:34.546Z,101571.94
2019-03-22T09:06:07.856Z,101566.95
2019-03-22T09:08:39.515Z,101565.04
2019-03-22T09:11:11.153Z,101557.53
2019-03-22T09:13:42.911Z,101559.70
2019-03-22T09:16:14.575Z,101554.84
2019-03-22T09:18:47.455Z,101536.62
2019-03-22T09:21:19.203Z,101531.97
2019-03-22T09:23:50.979Z,101529.23
2019-03-22T09:26:22.670Z,101524.07
2019-03-22T09:28:54.185Z,101520.28
2019-03-22T09:31:25.658Z,101512.66
2019-03-22T09:33:57.421Z,101513.73
2019-03-22T09:36:29.128Z,101513.82
2019-03-22T09:39:00.928Z,101501.70
2019-03-22T09:41:32.870Z,101502.04
2019-03-22T09:44:05.875Z,101493.16
2019-03-22T09:46:37.643Z,101483.93
2019-03-22T09:49:09.539Z,101481.23
2019-03-22T09:51:41.041Z,101463.84
2019-03-22T09:54:12.722Z,101449.97
2019-03-22T09:56:47.262Z,101446.95
2019-03-22T09:59:17.885Z,101440.40
2019-03-22T10:01:49.905Z,101430.36
2019-03-22T10:04:21.546Z,101417.25
2019-03-22T10:06:53.286Z,101400.69
2019-03-22T10:09:24.970Z,101424.11
2019-03-22T10:11:56.443Z,101412.43
2019-03-22T10:14:31.223Z,101402.17
2019-03-22T10:17:01.191Z,101403.86
2019-03-22T10:19:32.934Z,101403.02
2019-03-22T10:22:04.532Z,101403.58
2019-03-22T10:24:36.296Z,101395.95
2019-03-22T10:27:07.942Z,101391.39
2019-03-22T10:29:39.401Z,101389.48
2019-03-22T10:32:11.463Z,101383.25
2019-03-22T10:34:42.947Z,101378.88
2019-03-22T10:37:15.453Z,101376.77
2019-03-22T10:39:47.039Z,101363.19
2019-03-22T10:42:19.068Z,101359.98
2019-03-22T10:44:50.594Z,101361.38
2019-03-22T10:47:22.165Z,101351.86
2019-03-22T10:49:54.913Z,101348.38
2019-03-22T10:52:26.657Z,101346.99
2019-03-22T10:55:07.875Z,101342.62
2019-03-22T10:57:31.827Z,101340.36
2019-03-22T11:00:05.341Z,101323.43
2019-03-22T11:02:36.975Z,101319.29
2019-03-22T11:05:08.432Z,101312.73
2019-03-22T11:07:40.206Z,101304.29
2019-03-22T11:10:13.680Z,101292.73
2019-03-22T11:12:45.140Z,101307.23
2019-03-22T11:15:16.614Z,101304.33
2019-03-22T11:17:48.266Z,101314.94
2019-03-22T11:20:20.116Z,101293.00
2019-03-22T11:22:51.785Z,101283.20
2019-03-22T11:25:23.327Z,101299.61
2019-03-22T11:27:54.774Z,101298.94
2019-03-22T11:30:26.658Z,101275.94
2019-03-22T11:32:58.217Z,101277.31
2019-03-22T11:35:29.972Z,101270.24
2019-03-22T11:38:01.413Z,101267.01
2019-03-22T11:40:33.086Z,101263.47
2019-03-22T11:43:08.821Z,101269.22
2019-03-22T11:45:38.139Z,101250.29
2019-03-22T11:48:09.982Z,101249.50
2019-03-22T11:50:41.542Z,101253.27
2019-03-22T11:53:13.210Z,101242.41
2019-03-22T11:55:45.073Z,101248.92
2019-03-22T11:58:16.730Z,101243.52
2019-03-22T12:00:51.661Z,101237.00
2019-03-22T12:03:23.321Z,101235.91
2019-03-22T12:05:54.979Z,101222.36
2019-03-22T12:08:26.820Z,101218.90
2019-03-22T12:10:58.496Z,101214.05
2019-03-22T12:13:30.969Z,101209.16
2019-03-22T12:16:02.730Z,101205.95
2019-03-22T12:18:35.407Z,101206.50
2019-03-22T12:21:06.864Z,101201.61
2019-03-22T12:23:38.619Z,101200.25
2019-03-22T12:26:11.595Z,101197.30
2019-03-22T12:28:43.475Z,101189.45
2019-03-22T12:31:15.132Z,101177.28
2019-03-22T12:33:46.783Z,101182.94
2019-03-22T12:36:18.748Z,101172.38
2019-03-22T12:38:50.201Z,101193.27
2019-03-22T12:41:22.060Z,101193.83
2019-03-22T12:43:53.718Z,101171.65
2019-03-22T12:46:25.278Z,101164.59
2019-03-22T12:48:57.142Z,101155.34
2019-03-22T12:51:28.895Z,101146.52
2019-03-22T12:54:00.759Z,101135.07
2019-03-22T12:56:32.401Z,101137.75
2019-03-22T12:59:04.079Z,101123.95
2019-03-22T13:01:36.140Z,101111.23
2019-03-22T13:04:08.494Z,101112.06
2019-03-22T13:06:40.359Z,101106.17
2019-03-22T13:09:11.915Z,101105.72
2019-03-22T13:11:43.486Z,101104.71
2019-03-22T13:14:15.350Z,101093.32
2019-03-22T13:16:46.799Z,101093.30
2019-03-22T13:19:18.543Z,101078.64
2019-03-22T13:21:50.423Z,101071.08
2019-03-22T13:24:21.978Z,101062.93
2019-03-22T13:26:53.841Z,101064.56
2019-03-22T13:29:25.596Z,101056.94
2019-03-22T13:31:57.361Z,101052.35
2019-03-22T13:34:28.912Z,101032.03
2019-03-22T13:37:00.449Z,101032.08
2019-03-22T13:39:32.330Z,101041.86
2019-03-22T13:42:03.986Z,101028.04
2019-03-22T13:44:35.942Z,101028.59
2019-03-22T13:47:07.404Z,101015.91
2019-03-22T13:49:38.954Z,101021.86
2019-03-22T13:52:10.515Z,101015.66
2019-03-22T13:54:42.872Z,101030.08
2019-03-22T13:57:14.659Z,101029.31
2019-03-22T13:59:46.213Z,101024.47
2019-03-22T14:02:17.850Z,101052.89
2019-03-22T14:04:49.624Z,101034.59
2019-03-22T14:07:21.254Z,101042.00
2019-03-22T14:09:53.138Z,101045.06
2019-03-22T14:12:24.882Z,101039.96
2019-03-22T14:14:56.960Z,101050.75
2019-03-22T14:17:28.703Z,101045.09
2019-03-22T14:20:10.450Z,101039.15
2019-03-22T14:22:33.464Z,101029.16
2019-03-22T14:25:06.251Z,101026.72
2019-03-22T14:27:37.989Z,101011.34
2019-03-22T14:30:09.752Z,101016.98
2019-03-22T14:32:41.320Z,101014.02
2019-03-22T14:35:12.962Z,101019.43
2019-03-22T14:37:44.432Z,101007.80
2019-03-22T14:40:16.087Z,101002.13
2019-03-22T14:42:47.934Z,100997.25
2019-03-22T14:45:19.692Z,100983.69
2019-03-22T14:47:51.571Z,100980.94
2019-03-22T14:50:23.228Z,100968.75
2019-03-22T14:52:55.094Z,100964.13
2019-03-22T14:55:26.544Z,100965.47
2019-03-22T14:57:58.395Z,100952.73
2019-03-22T15:00:30.205Z,100969.48
2019-03-22T15:03:01.736Z,100967.61
2019-03-22T15:05:36.553Z,100967.11
2019-03-22T15:08:10.098Z,100950.11
2019-03-22T15:10:41.916Z,100933.90
2019-03-22T15:13:14.496Z,100923.09
2019-03-22T15:16:05.812Z,100916.62
2019-03-22T15:18:50.987Z,100912.88
2019-03-22T15:21:24.079Z,100907.76
2019-03-22T15:24:06.280Z,100914.80
2019-03-22T15:26:44.157Z,100907.76
2019-03-22T15:29:38.475Z,100912.38
2019-03-22T15:32:40.314Z,100925.86
2019-03-22T15:35:16.414Z,100908.29
2019-03-22T15:37:59.621Z,100905.07
2019-03-22T15:40:31.173Z,100902.38
2019-03-22T15:43:04.062Z,100895.34
2019-03-22T15:45:35.510Z,100885.88
2019-03-22T15:48:07.375Z,100882.38
2019-03-22T15:50:38.932Z,100879.16
2019-03-22T15:53:11.850Z,100881.87
2019-03-22T15:55:43.265Z,100877.53
2019-03-22T15:58:15.007Z,100872.64
2019-03-22T16:00:46.672Z,100870.22
2019-03-22T16:03:18.535Z,100875.90
2019-03-22T16:05:50.086Z,100868.59
2019-03-22T16:08:21.531Z,100860.77
2019-03-22T16:10:54.250Z,100848.59
2019-03-22T16:13:26.847Z,100846.41
2019-03-22T16:15:58.369Z,100843.70
2019-03-22T16:30:40.646Z,101069.02
2019-03-22T16:33:12.560Z,101062.63
2019-03-22T16:35:44.157Z,101046.52
2019-03-22T16:38:15.809Z,101033.41
2019-03-22T16:40:47.460Z,101055.70
2019-03-22T16:43:20.439Z,101074.28
2019-03-22T16:45:51.772Z,101091.43
2019-03-22T16:48:23.453Z,101065.80
2019-03-22T16:50:56.354Z,101052.34
2019-03-22T16:53:28.260Z,101070.53
2019-03-22T16:56:01.918Z,101070.58
2019-03-22T16:58:33.567Z,101097.20
2019-03-22T17:01:06.462Z,101109.19
2019-03-22T17:03:37.891Z,101112.84
2019-03-22T17:06:09.671Z,101114.22
2019-03-22T17:08:41.079Z,101100.73
2019-03-22T17:11:12.841Z,101105.64
2019-03-22T17:13:44.637Z,101105.88
2019-03-22T17:16:16.184Z,101094.87
2019-03-22T17:18:47.953Z,101087.84
2019-03-22T17:21:19.287Z,101082.92
2019-03-22T17:23:51.267Z,101087.47
2019-03-22T17:26:22.831Z,101087.70
2019-03-22T17:28:54.467Z,101089.85
2019-03-22T17:31:26.341Z,101102.20
2019-03-22T17:33:58.392Z,101097.08
2019-03-22T17:36:29.870Z,101100.45
2019-03-22T17:39:01.927Z,101109.22
2019-03-22T17:41:34.494Z,101112.66
2019-03-22T17:44:06.262Z,101120.38
2019-03-22T17:46:37.816Z,101116.06
2019-03-22T17:49:09.815Z,101111.11
2019-03-22T17:51:41.335Z,101113.41
2019-03-22T17:54:13.196Z,101110.47
2019-03-22T17:56:44.735Z,101107.48
2019-03-22T17:59:16.508Z,101111.95
2019-03-22T18:01:48.524Z,101125.91
2019-03-22T18:04:24.078Z,101117.95
2019-03-22T18:06:53.222Z,101136.31
2019-03-22T18:09:25.049Z,101144.14
2019-03-22T18:11:56.522Z,101148.35
2019-03-22T18:14:28.582Z,101142.20
2019-03-22T18:17:00.031Z,101148.01
2019-03-22T18:19:33.139Z,101140.21
2019-03-22T18:22:04.692Z,101138.57
2019-03-22T18:24:36.542Z,101136.35
2019-03-22T18:27:08.127Z,101129.97
2019-03-22T18:29:40.010Z,101138.73
2019-03-22T18:32:12.450Z,101137.00
2019-03-22T18:34:44.217Z,101137.38
2019-03-22T18:37:16.078Z,101137.61
2019-03-22T18:39:48.139Z,101127.71
2019-03-22T18:42:19.700Z,101135.59
2019-03-22T18:44:51.142Z,101144.69
2019-03-22T18:47:22.820Z,101150.45
2019-03-22T18:49:55.068Z,101156.73
2019-03-22T18:52:26.837Z,101156.50
2019-03-22T18:54:58.695Z,101156.42
2019-03-22T18:57:30.234Z,101161.42
2019-03-22T19:00:02.411Z,101165.51
2019-03-22T19:02:34.284Z,101159.41
2019-03-22T19:05:07.971Z,101159.55
2019-03-22T19:07:39.636Z,101169.75
2019-03-22T19:10:12.479Z,101165.88
2019-03-22T19:12:44.091Z,101171.61
2019-03-22T19:15:15.972Z,101169.89
2019-03-22T19:17:47.386Z,101167.74
2019-03-22T19:20:20.896Z,101174.27
2019-03-22T19:22:52.560Z,101180.64
2019-03-22T19:25:24.401Z,101174.12
2019-03-22T19:27:56.077Z,101175.92
2019-03-22T19:30:27.690Z,101179.25
2019-03-22T19:32:59.470Z,101181.25
2019-03-22T19:35:32.902Z,101187.94
2019-03-22T19:38:04.730Z,101186.88
2019-03-22T19:40:36.203Z,101193.33
2019-03-22T19:43:08.161Z,101185.45
2019-03-22T19:45:39.611Z,101185.57
2019-03-22T19:48:12.544Z,101183.80
2019-03-22T19:50:44.341Z,101181.63
2019-03-22T19:53:16.204Z,101190.84
2019-03-22T19:55:47.817Z,101183.27
2019-03-22T19:58:19.250Z,101181.28
2019-03-22T20:00:50.976Z,101191.31
2019-03-22T20:03:22.527Z,101184.77
2019-03-22T20:05:54.219Z,101193.41
2019-03-22T20:08:25.934Z,101189.33
2019-03-22T20:10:57.636Z,101188.67
2019-03-22T20:13:29.285Z,101187.84
2019-03-22T20:16:01.045Z,101186.45
2019-03-22T20:18:32.801Z,101188.90
2019-03-22T20:21:04.561Z,101195.66
2019-03-22T20:23:36.219Z,101190.83
2019-03-22T20:26:07.982Z,101190.98
2019-03-22T20:28:39.736Z,101193.45
2019-03-22T20:31:11.513Z,101189.73
2019-03-22T20:33:43.456Z,101184.22
2019-03-22T20:36:15.351Z,101190.16
2019-03-22T20:38:46.968Z,101190.57
2019-03-22T20:41:19.038Z,101189.91
2019-03-22T20:43:50.490Z,101183.14
2019-03-22T20:46:22.352Z,101184.17
2019-03-22T20:48:53.912Z,101187.38
2019-03-22T20:51:25.775Z,101183.37
2019-03-22T20:53:57.432Z,101184.03
2019-03-22T20:56:29.187Z,101179.86
2019-03-22T20:59:00.632Z,101177.33
2019-03-22T21:01:32.230Z,101178.36
2019-03-22T21:04:03.990Z,101182.28
2019-03-22T21:06:36.067Z,101183.12
2019-03-22T21:09:07.741Z,101179.83
2019-03-22T21:11:39.349Z,101174.41
2019-03-22T21:14:10.795Z,101178.63
2019-03-22T21:16:42.519Z,101170.34
2019-03-22T21:19:14.345Z,101181.03
2019-03-22T21:21:45.734Z,101175.88
2019-03-22T21:24:17.616Z,101176.49
2019-03-22T21:26:49.373Z,101171.95
2019-03-22T21:29:22.055Z,101174.62
2019-03-22T21:31:53.812Z,101170.20
2019-03-22T21:34:25.672Z,101169.91
2019-03-22T21:36:57.129Z,101169.02
2019-03-22T21:39:30.633Z,101170.77
2019-03-22T21:42:02.600Z,101174.41
2019-03-22T21:44:34.131Z,101164.89
2019-03-22T21:47:05.973Z,101164.12
2019-03-22T21:49:37.763Z,101161.81
2019-03-22T21:52:10.018Z,101163.72
2019-03-22T21:54:41.496Z,101164.17
2019-03-22T21:57:13.140Z,101163.63
2019-03-22T21:59:44.701Z,101166.12
2019-03-22T22:02:16.494Z,101167.30
2019-03-22T22:04:48.880Z,101164.45
2019-03-22T22:07:20.487Z,101169.33
2019-03-22T22:09:52.141Z,101165.85
2019-03-22T22:12:24.003Z,101161.60
2019-03-22T22:14:55.755Z,101162.44
2019-03-22T22:17:27.400Z,101164.73
2019-03-22T22:19:59.102Z,101165.13
2019-03-22T22:22:30.508Z,101158.30
2019-03-22T22:25:02.067Z,101155.23
2019-03-22T22:27:33.737Z,101150.23
2019-03-22T22:30:10.655Z,101151.38
2019-03-22T22:32:42.968Z,101144.45
2019-03-22T22:35:14.420Z,101147.04
2019-03-22T22:37:47.839Z,101139.80
2019-03-22T22:40:19.595Z,101144.63
2019-03-22T22:42:51.232Z,101139.52
2019-03-22T22:45:22.707Z,101141.80
2019-03-22T22:47:54.459Z,101138.52
2019-03-22T22:50:26.095Z,101141.41
2019-03-22T22:52:57.560Z,101138.25
2019-03-22T22:55:29.331Z,101135.91
2019-03-22T22:58:00.987Z,101140.12
2019-03-22T23:00:33.040Z,101135.11
2019-03-22T23:03:04.912Z,101131.22
2019-03-22T23:05:37.067Z,101131.22
2019-03-22T23:08:08.438Z,101137.14
2019-03-22T23:10:41.903Z,101128.87
2019-03-22T23:13:13.487Z,101123.45
2019-03-22T23:15:44.920Z,101122.01
2019-03-22T23:18:16.399Z,101119.66
2019-03-22T23:20:47.828Z,101114.65
2019-03-22T23:23:19.504Z,101122.73
2019-03-22T23:25:51.367Z,101121.80
2019-03-22T23:28:22.797Z,101118.11
2019-03-22T23:30:55.379Z,101119.86
2019-03-22T23:33:27.052Z,101116.08
2019-03-22T23:35:58.899Z,101121.89
2019-03-22T23:38:31.909Z,101119.86
2019-03-22T23:41:03.459Z,101118.43
2019-03-22T23:43:35.014Z,101113.61
2019-03-22T23:46:06.684Z,101104.81
2019-03-22T23:48:38.432Z,101099.88
2019-03-22T23:51:10.088Z,101101.94
2019-03-22T23:53:41.544Z,101100.81
2019-03-22T23:56:14.531Z,101098.05
2019-03-22T23:58:46.272Z,101096.57
